METAR UND TAF INFORMATION
LGIR 262050Z 00000KT 9999 FEW025 18/15 Q1015 NOSIG

 FLUGHAFENKARTE

 RUNWAY INFORMATION
Runway 09 Runway length 8800 ft Runway width 148 ft
Runway elevation 78 ft Runway displaced threshold 1565 ft Runway heading 95
Runway 27 Runway length 8800 ft Runway width 148 ft
Runway elevation 82 ft Runway displaced threshold 0 ft Runway heading 275
Runway 12 Runway length 5138 ft Runway width 164 ft
Runway elevation 57 ft Runway displaced threshold 499 ft Runway heading 126
Runway 30 Runway length 5138 ft Runway width 164 ft
Runway elevation 115 ft Runway displaced threshold 0 ft Runway heading 306
Runway 18 Runway length 2559 ft Runway width 131 ft
Runway elevation 78 ft Runway displaced threshold 0 ft Runway heading 180
Runway 36 Runway length 2559 ft Runway width 131 ft
Runway elevation 115 ft Runway displaced threshold 328 ft Runway heading 0

 AIRPORT FREQUENCIES
Type A/G Name KAZANTZAKI Frequency 563.7 MHZ
Type APP Name IRAKLION A Frequency 123.975 MHZ
Type ATIS Name ATIS Frequency 127.55 MHZ
Type DIR Name IRAKLION D Frequency 118.025 MHZ
Type GND Name KAZANTZAKI Frequency 121.7 MHZ
Type TRSA Name IRAKLION R Frequency 123.975 MHZ
Type TWR Name KAZANTZAKI Frequency 120.85 MHZ

 AIRPORT NEAR NAVIGATION AIDS
Type NDB Name Iraklion Frequency 431 KHZ
Type VOR-DME Name Iraklion Frequency 108800 KHZ
Type TACAN Name Iraklion Frequency 108300 KHZ